Time;durP1;ratioP1;P1;durP2;ratioP2;P2;SDS_P1;SDS_P2;PMS_P1;PMS_P2;Temp;Humidity;BMP_temperature;BMP_pressure;BME280_temperature;BME280_humidity;BME280_pressure;Samples;Min_cycle;Max_cycle;Signal;HPM_P1;HPM_P2
2021/06/04 00:00:14;;;;;;;;;;;10.70;99.90;;;;;;6155508;23;19917;-91
2021/06/04 07:31:44;;;;;;;;;;;13.80;99.90;;;;;;6099000;23;19923;-90
2021/06/04 07:34:12;;;;;;;;;;;14.00;99.90;;;;;;6157941;23;19944;-90
2021/06/04 07:36:44;;;;;;;;;;;14.00;99.90;;;;;;6155221;23;19967;-91
2021/06/04 07:39:13;;;;;;;;;;;14.10;99.90;;;;;;6154213;23;19916;-90
2021/06/04 07:41:41;;;;;;;;;;;14.30;99.90;;;;;;6156528;23;19947;-89
2021/06/04 07:44:08;;;;;;;;;;;14.50;99.90;;;;;;6156520;23;19917;-91
2021/06/04 07:46:35;;;;;;;;;;;14.50;99.90;;;;;;6158720;23;20383;-92
2021/06/04 07:49:03;;;;;;;;;;;14.50;99.90;;;;;;6158833;23;19975;-90
2021/06/04 07:51:35;;;;;;;;;;;14.60;99.90;;;;;;6156694;23;19924;-91
2021/06/04 07:54:03;;;;;;;;;;;14.70;99.90;;;;;;6167681;23;19944;-90
2021/06/04 07:56:29;;;;;;;;;;;14.90;99.90;;;;;;6160186;23;19908;-91
2021/06/04 07:58:57;;;;;;;;;;;15.00;99.90;;;;;;6164583;23;19921;-93
2021/06/04 08:01:24;;;;;;;;;;;15.30;99.90;;;;;;6146301;23;19925;-92
2021/06/04 08:03:51;;;;;;;;;;;15.40;99.90;;;;;;6155258;23;19940;-93
2021/06/04 08:06:19;;;;;;;;;;;15.50;99.90;;;;;;6157143;23;19967;-90
2021/06/04 08:08:46;;;;;;;;;;;15.50;99.90;;;;;;6156428;23;19928;-89
2021/06/04 08:11:19;;;;;;;;;;;15.70;99.90;;;;;;6159277;23;20383;-90
2021/06/04 08:13:47;;;;;;;;;;;15.90;99.90;;;;;;6164864;23;20240;-91
2021/06/04 08:16:14;;;;;;;;;;;15.80;99.90;;;;;;6167019;23;19920;-91
2021/06/04 08:18:41;;;;;;;;;;;16.00;99.90;;;;;;6162855;23;19923;-90
2021/06/04 08:21:10;;;;;;;;;;;16.10;99.90;;;;;;6156488;23;20287;-90
2021/06/04 08:23:39;;;;;;;;;;;16.20;99.90;;;;;;6156249;23;19963;-91
2021/06/04 08:26:12;;;;;;;;;;;16.10;99.90;;;;;;6156354;23;19916;-90
2021/06/04 08:28:39;;;;;;;;;;;16.10;99.90;;;;;;6156904;23;19917;-89
2021/06/04 08:31:06;;;;;;;;;;;16.20;99.90;;;;;;6156084;23;19916;-87
2021/06/04 08:33:36;;;;;;;;;;;16.00;99.90;;;;;;6144184;23;20244;-89
2021/06/04 08:36:04;;;;;;;;;;;16.00;99.90;;;;;;6155532;23;20399;-90
2021/06/04 08:38:32;;;;;;;;;;;16.10;99.90;;;;;;6154740;23;19963;-88
2021/06/04 08:41:05;;;;;;;;;;;16.30;99.90;;;;;;6155525;23;20292;-90
2021/06/04 08:43:51;;;;;;;;;;;16.30;99.90;;;;;;6156087;23;20292;-90
2021/06/04 08:46:18;;;;;;;;;;;16.40;99.90;;;;;;6155624;23;19917;-91
2021/06/04 08:48:45;;;;;;;;;;;16.50;99.90;;;;;;6155299;23;19916;-88
2021/06/04 08:51:18;;;;;;;;;;;16.60;99.90;;;;;;6153446;23;19923;-90
2021/06/04 08:53:48;;;;;;;;;;;16.70;99.90;;;;;;6154529;23;19920;-90
2021/06/04 08:56:17;;;;;;;;;;;16.70;99.90;;;;;;6153260;23;19959;-90
2021/06/04 08:58:47;;;;;;;;;;;16.80;99.90;;;;;;6154660;23;20308;-91
2021/06/04 09:01:16;;;;;;;;;;;16.90;99.90;;;;;;6155420;23;19991;-91
2021/06/04 09:03:49;;;;;;;;;;;17.00;99.90;;;;;;6155186;23;19917;-89
2021/06/04 09:06:24;;;;;;;;;;;17.00;99.90;;;;;;6154864;23;19921;-89
2021/06/04 09:08:52;;;;;;;;;;;17.00;99.90;;;;;;6156138;23;19940;-90
2021/06/04 09:11:21;;;;;;;;;;;17.20;99.90;;;;;;6154577;23;19921;-89
2021/06/04 09:13:48;;;;;;;;;;;17.20;99.90;;;;;;6154807;23;20332;-89
2021/06/04 09:16:18;;;;;;;;;;;17.30;99.90;;;;;;6154931;23;19917;-90
2021/06/04 09:18:54;;;;;;;;;;;17.40;99.90;;;;;;6154993;23;19967;-90
2021/06/04 09:21:24;;;;;;;;;;;17.50;99.90;;;;;;6154131;23;19940;-89
2021/06/04 09:23:51;;;;;;;;;;;17.40;99.90;;;;;;6154813;23;20007;-92
2021/06/04 09:26:20;;;;;;;;;;;17.40;99.90;;;;;;6155268;23;20242;-93
2021/06/04 09:29:07;;;;;;;;;;;17.70;99.90;;;;;;6155758;23;19917;-93
2021/06/04 09:31:42;;;;;;;;;;;17.80;99.90;;;;;;6157664;23;19917;-92
2021/06/04 09:34:31;;;;;;;;;;;17.80;99.90;;;;;;6162674;23;19916;-92
2021/06/04 09:37:01;;;;;;;;;;;17.90;99.90;;;;;;6161014;23;20244;-91
2021/06/04 09:39:43;;;;;;;;;;;18.10;99.90;;;;;;6160420;23;19959;-93
2021/06/04 09:42:15;;;;;;;;;;;18.30;99.90;;;;;;6157129;23;19920;-90
2021/06/04 09:44:51;;;;;;;;;;;18.40;99.90;;;;;;6157097;23;19943;-91
2021/06/04 09:47:24;;;;;;;;;;;18.60;99.90;;;;;;6154476;23;19917;-88
2021/06/04 09:49:52;;;;;;;;;;;18.80;99.90;;;;;;6154273;23;19917;-90
2021/06/04 09:52:30;;;;;;;;;;;18.90;99.70;;;;;;6153275;23;19917;-91
2021/06/04 09:55:21;;;;;;;;;;;18.60;99.80;;;;;;6155913;23;19974;-91
2021/06/04 09:58:03;;;;;;;;;;;18.70;99.90;;;;;;6150071;23;19916;-90
2021/06/04 10:00:33;;;;;;;;;;;18.70;99.90;;;;;;6153661;23;19916;-92
2021/06/04 10:03:20;;;;;;;;;;;18.80;99.90;;;;;;6153591;23;19924;-93
2021/06/04 10:06:06;;;;;;;;;;;19.00;99.90;;;;;;6153044;23;19916;-90
2021/06/04 10:08:53;;;;;;;;;;;19.20;99.90;;;;;;6153719;23;19916;-91
2021/06/04 10:11:31;;;;;;;;;;;19.20;99.50;;;;;;6154707;23;20233;-92
2021/06/04 10:14:15;;;;;;;;;;;19.00;98.90;;;;;;6155926;23;20240;-91
2021/06/04 10:19:18;;;;;;;;;;;18.60;98.50;;;;;;6153523;23;19921;-91
2021/06/04 10:21:45;;;;;;;;;;;18.40;99.00;;;;;;6153711;23;19917;-90
2021/06/04 10:24:23;;;;;;;;;;;18.30;99.30;;;;;;6152702;23;19976;-90
2021/06/04 10:26:54;;;;;;;;;;;18.20;99.30;;;;;;6154752;23;19920;-89
2021/06/04 10:29:22;;;;;;;;;;;18.10;99.20;;;;;;6154633;23;19917;-90
2021/06/04 10:31:51;;;;;;;;;;;18.00;99.80;;;;;;6153342;23;20021;-90
2021/06/04 10:34:21;;;;;;;;;;;18.00;99.90;;;;;;6152270;23;19921;-89
2021/06/04 10:36:51;;;;;;;;;;;17.90;99.90;;;;;;6154641;23;19917;-89
2021/06/04 10:39:24;;;;;;;;;;;17.80;99.90;;;;;;6152855;23;19916;-90
2021/06/04 10:42:06;;;;;;;;;;;17.80;99.90;;;;;;6154794;23;19917;-90
2021/06/04 10:45:11;;;;;;;;;;;17.70;99.90;;;;;;6153063;23;19917;-88
2021/06/04 10:47:57;;;;;;;;;;;17.70;99.90;;;;;;6099232;23;19917;-91
2021/06/04 10:50:38;;;;;;;;;;;17.70;99.90;;;;;;6122921;23;23187;-90
2021/06/04 10:53:23;;;;;;;;;;;17.80;99.90;;;;;;6101916;23;19921;-92
2021/06/04 10:56:09;;;;;;;;;;;18.10;99.90;;;;;;6123684;23;19920;-90
2021/06/04 10:58:44;;;;;;;;;;;18.20;99.80;;;;;;6124295;23;19950;-93
2021/06/04 11:01:13;;;;;;;;;;;18.30;99.90;;;;;;6122427;23;19967;-91
2021/06/04 11:03:58;;;;;;;;;;;18.30;99.90;;;;;;6127472;23;19924;-90
2021/06/04 11:06:25;;;;;;;;;;;18.30;99.90;;;;;;6142052;23;19964;-89
2021/06/04 11:09:24;;;;;;;;;;;18.30;99.90;;;;;;6134561;23;19917;-88
2021/06/04 11:12:07;;;;;;;;;;;18.20;99.90;;;;;;5983508;23;19983;-89
2021/06/04 11:14:40;;;;;;;;;;;18.20;99.90;;;;;;6009194;23;19962;-91
2021/06/04 11:17:13;;;;;;;;;;;18.10;99.90;;;;;;6009631;23;19918;-90
2021/06/04 11:19:43;;;;;;;;;;;18.30;99.90;;;;;;6066935;23;20286;-89
2021/06/04 11:22:15;;;;;;;;;;;18.40;99.90;;;;;;6042907;23;20345;-88
2021/06/04 11:24:48;;;;;;;;;;;18.50;99.90;;;;;;6042692;23;19921;-89
2021/06/04 11:27:21;;;;;;;;;;;18.60;99.90;;;;;;6042598;23;20243;-87
2021/06/04 11:29:54;;;;;;;;;;;18.50;99.90;;;;;;6067265;23;19981;-89
2021/06/04 11:32:29;;;;;;;;;;;18.30;99.90;;;;;;6064401;23;20292;-90
2021/06/04 11:34:59;;;;;;;;;;;18.10;99.90;;;;;;6066726;23;19917;-90
2021/06/04 11:37:33;;;;;;;;;;;18.00;99.90;;;;;;6041691;23;20409;-89
2021/06/04 11:40:14;;;;;;;;;;;17.90;99.90;;;;;;6041388;23;19921;-90
2021/06/04 11:43:13;;;;;;;;;;;17.80;99.90;;;;;;6065541;23;19918;-89
2021/06/04 11:45:41;;;;;;;;;;;17.60;99.90;;;;;;6013191;23;19918;-88
2021/06/04 11:48:20;;;;;;;;;;;17.50;99.90;;;;;;6079428;23;19977;-89
2021/06/04 11:50:48;;;;;;;;;;;17.50;99.90;;;;;;6094120;23;20363;-89
2021/06/04 11:53:14;;;;;;;;;;;17.50;99.90;;;;;;6070609;23;19964;-89
2021/06/04 11:56:02;;;;;;;;;;;17.60;99.90;;;;;;6093378;23;19988;-90
2021/06/04 11:58:29;;;;;;;;;;;17.50;99.90;;;;;;6093950;23;19917;-89
2021/06/04 12:01:14;;;;;;;;;;;17.40;99.90;;;;;;6094642;23;19968;-90
2021/06/04 12:03:46;;;;;;;;;;;17.30;99.90;;;;;;6094216;23;19972;-87
2021/06/04 12:06:22;;;;;;;;;;;17.20;99.90;;;;;;6070276;23;19924;-90
2021/06/04 12:08:49;;;;;;;;;;;17.10;99.90;;;;;;6094241;23;19921;-90
2021/06/04 12:11:16;;;;;;;;;;;17.10;99.90;;;;;;6069591;23;19917;-90
2021/06/04 12:13:45;;;;;;;;;;;17.10;99.90;;;;;;6094794;23;19965;-87
2021/06/04 12:16:28;;;;;;;;;;;17.20;99.90;;;;;;6094213;23;19968;-89
2021/06/04 12:19:04;;;;;;;;;;;17.10;99.90;;;;;;6091156;23;19921;-90
2021/06/04 12:21:46;;;;;;;;;;;17.20;99.90;;;;;;6138634;23;19921;-90
2021/06/04 12:24:21;;;;;;;;;;;17.30;99.90;;;;;;6154457;23;19917;-89
2021/06/04 12:26:52;;;;;;;;;;;17.40;99.90;;;;;;6153715;23;19921;-88
2021/06/04 12:29:22;;;;;;;;;;;17.40;99.90;;;;;;6154920;23;19916;-88
2021/06/04 12:31:52;;;;;;;;;;;17.30;99.90;;;;;;6152709;23;19916;-88
2021/06/04 12:34:31;;;;;;;;;;;17.20;99.90;;;;;;6154076;23;19947;-88
2021/06/04 12:37:10;;;;;;;;;;;17.20;99.90;;;;;;6154379;23;19916;-90
2021/06/04 12:39:37;;;;;;;;;;;17.30;99.90;;;;;;6155639;23;19916;-89
2021/06/04 12:42:12;;;;;;;;;;;17.30;99.90;;;;;;6155246;23;19987;-88
2021/06/04 12:44:49;;;;;;;;;;;17.30;99.90;;;;;;6155266;23;19916;-87
2021/06/04 12:47:19;;;;;;;;;;;17.30;99.90;;;;;;6153383;23;20252;-88
2021/06/04 12:49:46;;;;;;;;;;;17.40;99.90;;;;;;6153966;23;19920;-86
2021/06/04 12:52:14;;;;;;;;;;;17.50;99.90;;;;;;6154512;23;19917;-90
2021/06/04 12:54:41;;;;;;;;;;;17.70;99.90;;;;;;6154010;23;19920;-89
2021/06/04 12:57:19;;;;;;;;;;;17.90;99.90;;;;;;6153212;23;19967;-87
2021/06/04 12:59:48;;;;;;;;;;;18.10;99.90;;;;;;6153439;23;19971;-88
2021/06/04 13:02:17;;;;;;;;;;;18.30;99.90;;;;;;6154828;23;20253;-90
2021/06/04 13:04:49;;;;;;;;;;;18.60;99.90;;;;;;6154219;23;19918;-86
2021/06/04 13:07:23;;;;;;;;;;;18.70;99.90;;;;;;6153041;23;19925;-89
2021/06/04 13:10:26;;;;;;;;;;;18.60;99.90;;;;;;6156404;23;19917;-87
2021/06/04 13:13:13;;;;;;;;;;;18.60;99.90;;;;;;6140313;23;19924;-88
2021/06/04 13:15:41;;;;;;;;;;;18.60;99.90;;;;;;6152203;23;19920;-90
2021/06/04 13:18:13;;;;;;;;;;;18.90;99.90;;;;;;6152836;23;20862;-86
2021/06/04 13:20:42;;;;;;;;;;;19.20;99.90;;;;;;6154333;23;19924;-87
2021/06/04 13:23:11;;;;;;;;;;;19.40;99.90;;;;;;6152503;23;20620;-89
2021/06/04 13:25:39;;;;;;;;;;;19.60;99.90;;;;;;6154389;23;19917;-88
2021/06/04 13:28:17;;;;;;;;;;;19.70;99.90;;;;;;6154440;23;19920;-88
2021/06/04 13:30:46;;;;;;;;;;;19.90;99.90;;;;;;6154679;23;19916;-88
2021/06/04 13:33:15;;;;;;;;;;;20.20;99.60;;;;;;6152739;23;19917;-84
2021/06/04 13:35:46;;;;;;;;;;;20.10;98.40;;;;;;6154059;23;19917;-89
2021/06/04 13:38:22;;;;;;;;;;;20.00;98.70;;;;;;6152629;23;19917;-87
2021/06/04 13:40:50;;;;;;;;;;;19.90;99.10;;;;;;6154297;23;19963;-89
2021/06/04 13:43:26;;;;;;;;;;;19.80;98.70;;;;;;6154775;23;20308;-86
2021/06/04 13:45:54;;;;;;;;;;;19.80;99.40;;;;;;6153808;23;19916;-88
2021/06/04 13:48:28;;;;;;;;;;;19.60;99.30;;;;;;6153173;23;19967;-89
2021/06/04 13:51:06;;;;;;;;;;;19.60;99.50;;;;;;6154240;23;19916;-89
2021/06/04 13:53:39;;;;;;;;;;;19.50;99.50;;;;;;6153282;23;19921;-87
2021/06/04 13:56:09;;;;;;;;;;;19.30;99.20;;;;;;6154852;23;20000;-89
2021/06/04 13:58:39;;;;;;;;;;;19.30;99.20;;;;;;6153665;23;19917;-85
2021/06/04 14:01:06;;;;;;;;;;;19.10;99.10;;;;;;6153166;23;19920;-87
2021/06/04 14:03:33;;;;;;;;;;;19.00;99.90;;;;;;6153507;23;19916;-90
2021/06/04 14:06:03;;;;;;;;;;;18.90;99.90;;;;;;6151848;23;19950;-85
2021/06/04 14:08:30;;;;;;;;;;;18.80;99.90;;;;;;6152621;23;19916;-85
2021/06/04 14:10:57;;;;;;;;;;;18.60;99.90;;;;;;6153504;23;19916;-84
2021/06/04 14:13:29;;;;;;;;;;;18.40;99.90;;;;;;6152518;23;19920;-84
2021/06/04 14:16:03;;;;;;;;;;;18.40;99.90;;;;;;6154622;23;19939;-84
2021/06/04 14:18:41;;;;;;;;;;;18.30;99.90;;;;;;6153149;23;19939;-84
2021/06/04 14:21:20;;;;;;;;;;;18.40;99.90;;;;;;6153901;23;19917;-85
2021/06/04 14:23:59;;;;;;;;;;;18.50;99.90;;;;;;6152809;23;19975;-85
2021/06/04 14:26:30;;;;;;;;;;;18.60;99.90;;;;;;6152599;23;19923;-84
2021/06/04 14:28:59;;;;;;;;;;;18.70;99.90;;;;;;6152835;23;19917;-84
2021/06/04 14:31:25;;;;;;;;;;;19.00;99.40;;;;;;6153429;23;19917;-83
2021/06/04 14:33:53;;;;;;;;;;;19.20;98.70;;;;;;6154562;23;19972;-85
2021/06/04 14:36:24;;;;;;;;;;;19.20;98.70;;;;;;6151801;23;19924;-84
2021/06/04 14:38:53;;;;;;;;;;;19.10;98.70;;;;;;6154848;23;19917;-84
2021/06/04 14:41:23;;;;;;;;;;;19.00;98.90;;;;;;6152810;23;19980;-86
2021/06/04 14:43:52;;;;;;;;;;;18.90;99.50;;;;;;6153452;23;19916;-84
2021/06/04 14:46:29;;;;;;;;;;;18.90;99.70;;;;;;6154668;23;19917;-83
2021/06/04 14:48:57;;;;;;;;;;;18.80;99.30;;;;;;6153600;23;19916;-83
2021/06/04 14:51:24;;;;;;;;;;;18.70;98.70;;;;;;6154338;23;19940;-85
2021/06/04 14:53:51;;;;;;;;;;;18.60;98.80;;;;;;6154685;23;20336;-84
2021/06/04 14:56:18;;;;;;;;;;;18.70;99.80;;;;;;6154477;23;20248;-85
2021/06/04 14:58:44;;;;;;;;;;;18.80;99.70;;;;;;6154897;23;20275;-82
2021/06/04 15:01:12;;;;;;;;;;;18.90;99.90;;;;;;6153677;23;19974;-81
2021/06/04 15:03:39;;;;;;;;;;;18.90;99.40;;;;;;6154382;23;19947;-83
2021/06/04 15:06:07;;;;;;;;;;;18.90;98.80;;;;;;6153841;23;19920;-82
2021/06/04 15:08:34;;;;;;;;;;;18.80;98.70;;;;;;6155949;23;19921;-84
2021/06/04 15:11:01;;;;;;;;;;;18.80;98.70;;;;;;6155827;23;19916;-83
2021/06/04 15:13:33;;;;;;;;;;;18.70;99.00;;;;;;6155745;23;19917;-83
2021/06/04 15:16:01;;;;;;;;;;;18.70;99.00;;;;;;6153799;23;19917;-83
2021/06/04 15:18:29;;;;;;;;;;;18.70;99.20;;;;;;6155279;23;19923;-83
2021/06/04 15:20:56;;;;;;;;;;;18.60;99.10;;;;;;6156318;23;19995;-81
2021/06/04 15:23:23;;;;;;;;;;;18.50;99.20;;;;;;6154154;23;19963;-84
2021/06/04 15:25:50;;;;;;;;;;;18.50;99.30;;;;;;6155767;23;19959;-83
2021/06/04 15:28:20;;;;;;;;;;;18.50;99.60;;;;;;6154000;23;19921;-82
2021/06/04 15:30:47;;;;;;;;;;;18.70;99.40;;;;;;6153568;23;19920;-83
2021/06/04 15:33:14;;;;;;;;;;;18.70;99.30;;;;;;6153485;23;20412;-84
2021/06/04 15:35:41;;;;;;;;;;;18.80;98.90;;;;;;6153674;23;19963;-83
2021/06/04 15:38:08;;;;;;;;;;;18.80;99.20;;;;;;6155588;23;19963;-82
2021/06/04 15:40:35;;;;;;;;;;;18.90;99.50;;;;;;6156006;23;19924;-84
2021/06/04 15:43:02;;;;;;;;;;;19.00;99.90;;;;;;6155757;23;19916;-82
2021/06/04 15:45:30;;;;;;;;;;;19.00;99.10;;;;;;6155400;23;19924;-83
2021/06/04 15:47:59;;;;;;;;;;;18.80;99.20;;;;;;6153922;23;19991;-83
2021/06/04 15:50:28;;;;;;;;;;;18.70;99.50;;;;;;6155335;23;20363;-84
2021/06/04 15:52:55;;;;;;;;;;;18.80;99.50;;;;;;6155997;23;19967;-85
2021/06/04 15:55:22;;;;;;;;;;;18.90;99.10;;;;;;6155145;23;19920;-83
2021/06/04 15:57:49;;;;;;;;;;;19.00;99.30;;;;;;6154869;23;19923;-83
2021/06/04 16:00:21;;;;;;;;;;;19.00;99.60;;;;;;6150883;23;20280;-83
2021/06/04 16:02:48;;;;;;;;;;;19.10;99.50;;;;;;6151090;23;19921;-84
2021/06/04 16:05:16;;;;;;;;;;;19.10;99.10;;;;;;6154755;23;19978;-84
2021/06/04 16:07:43;;;;;;;;;;;19.30;99.70;;;;;;6155451;23;19916;-83
2021/06/04 16:10:11;;;;;;;;;;;19.30;99.90;;;;;;6152878;23;19920;-83
2021/06/04 16:12:38;;;;;;;;;;;19.40;99.90;;;;;;6153253;23;19940;-81
2021/06/04 16:15:07;;;;;;;;;;;19.40;99.50;;;;;;6153433;23;19963;-83
2021/06/04 16:17:34;;;;;;;;;;;19.40;99.90;;;;;;6153920;23;19987;-81
2021/06/04 16:20:00;;;;;;;;;;;19.40;99.40;;;;;;6155604;23;20303;-83
2021/06/04 16:22:31;;;;;;;;;;;19.50;99.80;;;;;;6153286;23;19924;-81
2021/06/04 16:25:00;;;;;;;;;;;19.40;98.90;;;;;;6155636;23;20287;-80
2021/06/04 16:27:26;;;;;;;;;;;19.40;99.30;;;;;;6154884;23;20280;-83
2021/06/04 16:29:53;;;;;;;;;;;19.30;99.50;;;;;;6155033;23;19916;-83
2021/06/04 16:32:20;;;;;;;;;;;19.30;99.50;;;;;;6152054;23;19927;-82
2021/06/04 16:34:48;;;;;;;;;;;19.30;99.80;;;;;;6153196;23;20343;-85
2021/06/04 16:37:16;;;;;;;;;;;19.30;99.40;;;;;;6155089;23;19917;-82
2021/06/04 16:39:46;;;;;;;;;;;19.30;99.10;;;;;;6152346;23;19948;-83
2021/06/04 16:42:13;;;;;;;;;;;19.30;99.00;;;;;;6150560;23;20371;-84
2021/06/04 16:44:40;;;;;;;;;;;19.20;98.90;;;;;;6150608;23;20348;-83
2021/06/04 16:47:08;;;;;;;;;;;19.10;98.70;;;;;;6152497;23;19917;-83
2021/06/04 16:49:35;;;;;;;;;;;19.10;98.90;;;;;;6150954;23;19948;-83
2021/06/04 16:52:03;;;;;;;;;;;19.30;99.10;;;;;;6151010;23;19921;-84
2021/06/04 16:54:30;;;;;;;;;;;19.40;98.50;;;;;;6148879;23;19917;-83
2021/06/04 16:56:57;;;;;;;;;;;19.50;98.60;;;;;;6150517;23;19920;-83
2021/06/04 16:59:23;;;;;;;;;;;19.60;98.30;;;;;;6150304;23;19925;-83
2021/06/04 17:01:50;;;;;;;;;;;19.70;97.80;;;;;;6150844;23;19924;-82
2021/06/04 17:04:18;;;;;;;;;;;19.80;97.70;;;;;;6149351;23;20460;-82
2021/06/04 17:06:44;;;;;;;;;;;19.90;97.60;;;;;;6150964;23;20345;-81
2021/06/04 17:09:11;;;;;;;;;;;20.00;97.90;;;;;;6150263;23;19921;-84
2021/06/04 17:11:39;;;;;;;;;;;20.00;97.30;;;;;;6151055;23;20241;-83
2021/06/04 17:14:06;;;;;;;;;;;19.90;97.20;;;;;;6149377;23;20253;-83
2021/06/04 17:16:33;;;;;;;;;;;19.90;97.50;;;;;;6150413;23;19964;-85
2021/06/04 17:19:00;;;;;;;;;;;19.90;97.50;;;;;;6151918;23;19931;-83
2021/06/04 17:21:27;;;;;;;;;;;19.90;97.20;;;;;;6151530;23;19916;-83
2021/06/04 17:23:57;;;;;;;;;;;20.10;97.60;;;;;;6149415;23;19917;-85
2021/06/04 17:26:25;;;;;;;;;;;20.10;96.80;;;;;;6149841;23;19931;-82
2021/06/04 17:28:53;;;;;;;;;;;20.10;96.40;;;;;;6149583;23;19979;-85
2021/06/04 17:31:20;;;;;;;;;;;20.00;96.20;;;;;;6148712;23;19917;-84
2021/06/04 17:33:48;;;;;;;;;;;20.00;96.80;;;;;;6150349;23;19912;-82
2021/06/04 17:36:15;;;;;;;;;;;20.00;97.00;;;;;;6151673;23;20308;-84
2021/06/04 17:38:41;;;;;;;;;;;20.00;96.60;;;;;;6151352;23;19916;-85
2021/06/04 17:41:08;;;;;;;;;;;20.10;96.60;;;;;;6149948;23;19920;-85
2021/06/04 17:43:35;;;;;;;;;;;20.10;96.30;;;;;;6150266;23;20234;-82
2021/06/04 17:46:02;;;;;;;;;;;20.10;96.20;;;;;;6152296;23;19979;-86
2021/06/04 17:48:29;;;;;;;;;;;20.30;96.70;;;;;;6148809;23;19917;-84
2021/06/04 17:50:56;;;;;;;;;;;20.50;96.60;;;;;;6152341;23;19920;-83
2021/06/04 17:53:24;;;;;;;;;;;20.90;96.30;;;;;;6150612;23;20284;-86
2021/06/04 17:55:51;;;;;;;;;;;21.40;96.10;;;;;;6150597;23;19912;-84
2021/06/04 17:58:20;;;;;;;;;;;22.20;96.00;;;;;;6149450;23;19952;-85
2021/06/04 18:00:47;;;;;;;;;;;22.80;94.90;;;;;;6149940;23;19917;-84
2021/06/04 18:03:14;;;;;;;;;;;23.30;94.30;;;;;;6150539;23;19916;-83
2021/06/04 18:05:42;;;;;;;;;;;23.90;93.10;;;;;;6160960;23;19967;-83
2021/06/04 18:08:09;;;;;;;;;;;24.20;92.40;;;;;;6150166;23;19912;-83
2021/06/04 18:10:38;;;;;;;;;;;24.80;91.90;;;;;;6150294;23;19967;-83
2021/06/04 18:13:07;;;;;;;;;;;25.30;91.20;;;;;;6149818;23;19954;-84
2021/06/04 18:15:35;;;;;;;;;;;25.40;90.80;;;;;;6148959;23;19972;-86
2021/06/04 18:18:04;;;;;;;;;;;25.60;90.00;;;;;;6150314;23;19935;-85
2021/06/04 18:20:31;;;;;;;;;;;25.90;90.00;;;;;;6151324;23;19916;-83
2021/06/04 18:22:58;;;;;;;;;;;26.00;88.70;;;;;;6150367;23;20304;-85
2021/06/04 18:25:28;;;;;;;;;;;26.20;88.80;;;;;;6148285;23;19942;-83
2021/06/04 18:27:55;;;;;;;;;;;26.30;86.70;;;;;;6150916;23;20021;-84
2021/06/04 18:30:24;;;;;;;;;;;26.40;87.30;;;;;;6148316;23;19920;-85
2021/06/04 18:32:51;;;;;;;;;;;26.70;85.10;;;;;;6150115;23;20406;-83
2021/06/04 18:35:21;;;;;;;;;;;26.90;84.40;;;;;;6149559;23;20319;-83
2021/06/04 18:37:48;;;;;;;;;;;26.80;81.90;;;;;;6150560;23;19924;-83
2021/06/04 18:40:20;;;;;;;;;;;26.40;83.10;;;;;;6149537;23;19921;-81
2021/06/04 18:42:47;;;;;;;;;;;26.60;83.10;;;;;;6150444;23;19975;-83
2021/06/04 18:45:15;;;;;;;;;;;27.00;82.20;;;;;;6149358;23;19916;-83
2021/06/04 18:47:42;;;;;;;;;;;27.20;81.30;;;;;;6146567;23;19983;-84
2021/06/04 18:50:11;;;;;;;;;;;27.40;80.40;;;;;;6147857;23;20245;-84
2021/06/04 18:52:37;;;;;;;;;;;27.30;80.10;;;;;;6149326;23;19917;-82
2021/06/04 18:55:07;;;;;;;;;;;27.20;79.90;;;;;;6148944;23;19924;-82
2021/06/04 18:57:34;;;;;;;;;;;27.30;80.00;;;;;;6150456;23;20248;-84
2021/06/04 19:00:12;;;;;;;;;;;27.10;78.80;;;;;;6150432;23;20425;-85
2021/06/04 19:02:39;;;;;;;;;;;26.80;79.20;;;;;;6150447;23;19920;-85
2021/06/04 19:05:06;;;;;;;;;;;26.70;79.30;;;;;;6149969;23;19917;-84
2021/06/04 19:07:33;;;;;;;;;;;26.60;79.90;;;;;;6149074;23;19920;-84
2021/06/04 19:10:00;;;;;;;;;;;26.50;78.70;;;;;;6149867;23;19916;-83
2021/06/04 19:12:27;;;;;;;;;;;26.30;78.90;;;;;;6149096;23;19968;-84
2021/06/04 19:14:54;;;;;;;;;;;26.20;78.40;;;;;;6148149;23;19916;-83
2021/06/04 19:17:21;;;;;;;;;;;26.00;79.20;;;;;;6148718;23;19927;-84
2021/06/04 19:19:49;;;;;;;;;;;26.00;78.50;;;;;;6149418;23;19963;-84
2021/06/04 19:22:15;;;;;;;;;;;25.70;79.10;;;;;;6148899;23;20292;-84
2021/06/04 19:24:42;;;;;;;;;;;25.50;78.70;;;;;;6148542;23;19990;-84
2021/06/04 19:27:11;;;;;;;;;;;24.90;79.50;;;;;;6148540;23;20574;-85
2021/06/04 19:29:43;;;;;;;;;;;24.20;80.90;;;;;;6150989;23;19931;-84
2021/06/04 19:32:11;;;;;;;;;;;23.50;82.10;;;;;;6148346;23;19983;-85
2021/06/04 19:34:38;;;;;;;;;;;22.70;84.10;;;;;;6150066;23;20249;-84
2021/06/04 19:37:05;;;;;;;;;;;22.00;85.80;;;;;;6151463;23;19916;-84
2021/06/04 19:39:32;;;;;;;;;;;21.30;87.50;;;;;;6151742;23;19952;-83
2021/06/04 19:41:59;;;;;;;;;;;20.80;88.70;;;;;;6151592;23;20411;-82
2021/06/04 19:44:27;;;;;;;;;;;20.40;90.00;;;;;;6151662;23;19921;-85
2021/06/04 19:46:54;;;;;;;;;;;20.00;90.50;;;;;;6152236;23;19987;-83
2021/06/04 19:49:21;;;;;;;;;;;19.60;91.20;;;;;;6151560;23;19917;-84
2021/06/04 19:51:49;;;;;;;;;;;19.20;91.70;;;;;;6153467;23;19927;-84
2021/06/04 19:54:17;;;;;;;;;;;18.80;92.40;;;;;;6153175;23;19916;-83
2021/06/04 19:56:44;;;;;;;;;;;18.40;93.10;;;;;;6151909;23;19986;-84
2021/06/04 19:59:11;;;;;;;;;;;18.10;93.60;;;;;;6151553;23;19921;-83
2021/06/04 20:01:40;;;;;;;;;;;17.80;94.40;;;;;;6152050;23;19920;-82
2021/06/04 20:04:09;;;;;;;;;;;17.50;95.00;;;;;;6150992;23;20354;-83
2021/06/04 20:06:36;;;;;;;;;;;17.20;95.50;;;;;;6151742;23;19971;-82
2021/06/04 20:09:04;;;;;;;;;;;16.90;96.20;;;;;;6153133;23;19916;-82
2021/06/04 20:11:32;;;;;;;;;;;16.70;96.80;;;;;;6153710;23;20295;-83
2021/06/04 20:14:00;;;;;;;;;;;16.50;97.30;;;;;;6151673;23;19928;-85
2021/06/04 20:16:28;;;;;;;;;;;16.30;97.80;;;;;;6152572;23;20313;-84
2021/06/04 20:18:56;;;;;;;;;;;16.10;98.40;;;;;;6150864;23;19922;-84
2021/06/04 20:21:23;;;;;;;;;;;15.90;99.00;;;;;;6150753;23;19971;-85
2021/06/04 20:23:50;;;;;;;;;;;15.80;99.20;;;;;;6151557;23;20637;-85
2021/06/04 20:26:19;;;;;;;;;;;15.70;99.60;;;;;;6152640;23;19920;-84
2021/06/04 20:28:46;;;;;;;;;;;15.50;99.90;;;;;;6152965;23;19947;-85
2021/06/04 20:31:14;;;;;;;;;;;15.40;99.90;;;;;;6148814;23;19917;-84
2021/06/04 20:33:42;;;;;;;;;;;15.30;99.90;;;;;;6152837;23;19916;-83
2021/06/04 20:36:10;;;;;;;;;;;15.20;99.90;;;;;;6150220;23;19920;-84
2021/06/04 20:38:37;;;;;;;;;;;15.00;99.90;;;;;;6150621;23;20339;-83
2021/06/04 20:41:04;;;;;;;;;;;14.90;99.90;;;;;;6149613;23;19963;-84
2021/06/04 20:43:31;;;;;;;;;;;14.80;99.90;;;;;;6150874;23;19917;-82
2021/06/04 20:46:00;;;;;;;;;;;14.70;99.90;;;;;;6150860;23;19917;-83
2021/06/04 20:48:29;;;;;;;;;;;14.60;99.90;;;;;;6150831;23;19916;-84
2021/06/04 20:50:57;;;;;;;;;;;14.60;99.90;;;;;;6152575;23;19916;-84
2021/06/04 20:53:27;;;;;;;;;;;14.50;99.90;;;;;;6152150;23;19916;-84
2021/06/04 20:55:55;;;;;;;;;;;14.40;99.90;;;;;;6151494;23;19924;-82
2021/06/04 20:58:21;;;;;;;;;;;14.30;99.90;;;;;;6151371;23;20296;-83
2021/06/04 21:00:48;;;;;;;;;;;14.30;99.90;;;;;;6150805;23;19964;-83
2021/06/04 21:03:16;;;;;;;;;;;14.20;99.90;;;;;;6151211;23;19916;-83
2021/06/04 21:05:44;;;;;;;;;;;14.20;99.90;;;;;;6151190;23;19967;-83
2021/06/04 21:08:11;;;;;;;;;;;14.10;99.90;;;;;;6149668;23;19963;-83
2021/06/04 21:10:38;;;;;;;;;;;14.00;99.90;;;;;;6152239;23;19971;-83
2021/06/04 21:13:06;;;;;;;;;;;14.00;99.90;;;;;;6150008;23;19971;-82
2021/06/04 21:15:41;;;;;;;;;;;13.90;99.90;;;;;;6150398;23;19987;-83
2021/06/04 21:18:09;;;;;;;;;;;13.80;99.90;;;;;;6150302;23;20255;-83
2021/06/04 21:20:36;;;;;;;;;;;13.70;99.90;;;;;;6149090;23;19916;-84
2021/06/04 21:23:04;;;;;;;;;;;13.70;99.90;;;;;;6149333;23;19917;-84
2021/06/04 21:25:33;;;;;;;;;;;13.60;99.90;;;;;;6148582;23;19917;-84
2021/06/04 21:28:00;;;;;;;;;;;13.60;99.90;;;;;;6146091;23;20240;-84
2021/06/04 21:30:28;;;;;;;;;;;13.60;99.90;;;;;;6148546;23;19974;-84
2021/06/04 21:32:55;;;;;;;;;;;13.50;99.90;;;;;;6149785;23;19921;-85
2021/06/04 21:35:24;;;;;;;;;;;13.50;99.90;;;;;;6148910;23;19920;-86
2021/06/04 21:37:51;;;;;;;;;;;13.40;99.90;;;;;;6151762;23;19963;-84
2021/06/04 21:40:20;;;;;;;;;;;13.40;99.90;;;;;;6152823;23;19918;-84
2021/06/04 21:42:47;;;;;;;;;;;13.30;99.90;;;;;;6151482;23;20300;-84
2021/06/04 21:45:14;;;;;;;;;;;13.30;99.90;;;;;;6127927;23;19917;-81
2021/06/04 21:47:41;;;;;;;;;;;13.20;99.90;;;;;;6151776;23;19916;-83
2021/06/04 21:50:14;;;;;;;;;;;13.20;99.90;;;;;;6150975;23;19921;-83
2021/06/04 21:52:41;;;;;;;;;;;13.10;99.90;;;;;;6153550;23;20277;-85
2021/06/04 21:55:09;;;;;;;;;;;13.10;99.90;;;;;;6151630;23;19923;-83
2021/06/04 21:57:36;;;;;;;;;;;13.00;99.90;;;;;;6150763;23;19916;-83
2021/06/04 22:00:33;;;;;;;;;;;13.00;99.90;;;;;;6151676;23;19921;-82
2021/06/04 22:03:00;;;;;;;;;;;13.00;99.90;;;;;;6139664;23;19920;-83
2021/06/04 22:05:28;;;;;;;;;;;12.90;99.90;;;;;;6152678;23;19932;-84